This is the latest recevied weather packets stored in our database for station/object WX2P-13. If no packets are shown the sender has not sent any weather packets the latest 1 day(s).
| Time | Temp. | Humidity | Pressure | Rain* | Wind** | Luminosity | Snow |
|---|---|---|---|---|---|---|---|
| 1777995765 | 28.33° C | 55% | 1016.9 hPa | 0 mm | 0 m/s | 249 W/m² | - |
| 1777995461 | 27.78° C | 59% | 1017.1 hPa | 0 mm | 0.45 m/s, 67° | 523 W/m² | - |
| 1777995158 | 27.78° C | 65% | 1017.2 hPa | 0 mm | 0.45 m/s, 212° | 255 W/m² | - |
| 1777994855 | 27.78° C | 64% | 1016.9 hPa | 0 mm | 0.45 m/s, 190° | 355 W/m² | - |
| 1777994551 | 27.22° C | 65% | 1017 hPa | 0 mm | 0.45 m/s, 99° | 223 W/m² | - |
| 1777994246 | 27.78° C | 64% | 1017.1 hPa | 0 mm | 0.45 m/s, 164° | 172 W/m² | - |
| 1777993943 | 27.78° C | 63% | 1016.8 hPa | 0 mm | 0 m/s | 315 W/m² | - |
| 1777993640 | 28.33° C | 62% | 1016.7 hPa | 0 mm | 0.89 m/s, 165° | 253 W/m² | - |
| 1777993337 | 27.78° C | 62% | 1016.8 hPa | 0 mm | 1.34 m/s, 149° | 846 W/m² | - |
| 1777993032 | 26.67° C | 66% | 1017.1 hPa | 0 mm | 0.45 m/s, 134° | 855 W/m² | - |
| 1777992731 | 26.67° C | 68% | 1017 hPa | 0 mm | 0.89 m/s, 233° | 527 W/m² | - |
| 1777992428 | 26.67° C | 67% | 1016.9 hPa | 0 mm | 0 m/s | 448 W/m² | - |
| 1777992127 | 27.22° C | 66% | 1017.1 hPa | 0 mm | 1.34 m/s, 85° | 587 W/m² | - |
| 1777991823 | 26.67° C | 67% | 1017 hPa | 0 mm | 1.34 m/s, 199° | 348 W/m² | - |
| 1777991521 | 27.22° C | 68% | 1017 hPa | 0 mm | 0.45 m/s, 135° | 298 W/m² | - |
| 1777991217 | 26.67° C | 68% | 1016.8 hPa | 0 mm | 0.45 m/s, 137° | 660 W/m² | - |
| 1777990915 | 26.67° C | 68% | 1017 hPa | 0 mm | 0.45 m/s, 184° | 718 W/m² | - |
| 1777990613 | 26.67° C | 69% | 1017.1 hPa | 0 mm | 0 m/s | 627 W/m² | - |
| 1777990309 | 26.11° C | 70% | 1017.1 hPa | 0 mm | 0.89 m/s, 124° | 668 W/m² | - |
| 1777990005 | 26.11° C | 70% | 1016.9 hPa | 0 mm | 0.89 m/s, 119° | 514 W/m² | - |
| 1777989702 | 25.56° C | 72% | 1017 hPa | 0 mm | 0.45 m/s, 10° | 567 W/m² | - |
| 1777989398 | 25.56° C | 72% | 1017 hPa | 0 mm | 0.45 m/s, 131° | 611 W/m² | - |
| 1777989095 | 25° C | 74% | 1017 hPa | 0 mm | 0 m/s | 567 W/m² | - |
| 1777988791 | 25° C | 74% | 1016.7 hPa | 0 mm | 0 m/s | 168 W/m² | - |
| 1777988489 | 25° C | 73% | 1016.6 hPa | 0 mm | 0.45 m/s, 151° | 457 W/m² | - |
* Rain latest hour (hover to see other rain measurements)
** Current wind speed in m/s (hover to see current wind gust speed)